Miles, TX (76861)

4:29 PM CDT on April 25, 2017 (GMT -0500)
May Hill | | Change Station

Elev 1762 ft 31.55 °N, 100.22 °W | Updated 24 seconds ago

Partly Cloudy
Partly Cloudy
95.6 °F
Feels Like 91 °F
N
9.0
Wind Variable Wind from SW

Today
High -- | Low -- °F
--% Chance of Precip.
Yesterday
High -- | Low -- °F
Precip. -- in
Pressure 29.40 in
Visibility 10.0 miles
Clouds Clear
Heat Index 91 °F
Dew Point 42 °F
Humidity 15%
Rainfall 0.00 in
Snow Depth Not available.
7:01 AM 8:16 PM
Waning Crescent, 1% visible
METAR KSJT 252051Z 22013KT 10SM CLR 33/01 A2948 RMK AO2 SLP956 T03330006 56024
Pressure 29.40 in
Visibility 10.0 miles
Clouds Clear
Heat Index 91 °F
Dew Point 42 °F
Humidity 15%
Rainfall 0.00 in
Snow Depth Not available.
7:01 AM 8:16 PM
Waning Crescent, 1% visible
METAR KSJT 252051Z 22013KT 10SM CLR 33/01 A2948 RMK AO2 SLP956 T03330006 56024

Get Severe Weather Alerts

Thanks for signing up!

Be on the lookout for a verification email in your inbox.

You'll start receiving the daily forecast at 8 AM.

×

10-Day Weather Forecast

Almanac

Astronomy

Apr. 25, 2017 Rise Set
Actual Time
Civil Twilight
Nautical Twilight
Astronomical Twilight
Moon
Length of Visible Light
Length of Day
Tomorrow will be .
, % of the Moon is Illuminated

Today's Extremes

State Highs State Lows

Community

WunderPhotos

WunderBlog® & News

Nearby

Air Quality

  Air Quality AQ Index Pollutant
Not available.

Snow Depth

Station Depth Elevation

Earthquake Activity

City Distance Mag. Time & Date
Minimum magnitude displayed is 2.5.

Coastal Water Temperatures

Place Temperature

Stations

Nearby Weather Stations

Station Location Temp. Windchill Dew Point Humidity Wind Precip. Elev Updated Type
                   

Watches & Warnings

There are currently no watches in effect.